createdAt,value
2022-08-10T00:00:58.430Z,64.79
2022-08-10T00:03:26.168Z,64.53
2022-08-10T00:05:56.315Z,64.82
2022-08-10T00:08:24.986Z,64.59
2022-08-10T00:10:52.851Z,64.51
2022-08-10T00:13:20.639Z,64.65
2022-08-10T00:15:53.947Z,64.86
2022-08-10T00:18:34.522Z,64.69
2022-08-10T00:21:04.053Z,66.22
2022-08-10T00:23:31.806Z,65.55
2022-08-10T00:25:59.559Z,66.24
2022-08-10T00:28:27.330Z,65.31
2022-08-10T00:30:55.257Z,65.27
2022-08-10T00:33:24.645Z,66.02
2022-08-10T00:35:52.372Z,66.21
2022-08-10T00:38:20.096Z,65.47
2022-08-10T00:40:47.793Z,65.11
2022-08-10T00:43:15.459Z,65.48
2022-08-10T00:45:59.446Z,65.13
2022-08-10T00:48:30.629Z,65.25
2022-08-10T00:50:59.234Z,64.65
2022-08-10T00:53:27.502Z,64.71
2022-08-10T00:57:14.093Z,65.16
2022-08-10T00:58:43.198Z,65.24
2022-08-10T01:02:07.093Z,65.00
2022-08-10T01:04:55.514Z,65.03
2022-08-10T01:06:54.817Z,65.42
2022-08-10T01:09:30.000Z,64.98
2022-08-10T01:12:37.771Z,64.97
2022-08-10T01:15:03.531Z,65.66
2022-08-10T01:17:50.507Z,65.99
2022-08-10T01:20:30.749Z,67.14
2022-08-10T01:23:26.011Z,65.71
2022-08-10T01:26:11.800Z,65.72
2022-08-10T01:28:49.076Z,66.68
2022-08-10T01:31:22.218Z,66.51
2022-08-10T01:33:58.483Z,66.10
2022-08-10T01:36:32.870Z,66.07
2022-08-10T01:39:03.674Z,65.99
2022-08-10T01:41:45.587Z,65.95
2022-08-10T01:44:33.672Z,66.61
2022-08-10T01:47:24.495Z,66.42
2022-08-10T01:50:03.507Z,65.88
2022-08-10T01:52:32.382Z,66.54
2022-08-10T01:55:00.347Z,66.43
2022-08-10T01:57:30.278Z,66.21
2022-08-10T02:00:02.652Z,66.78
2022-08-10T02:02:32.478Z,66.46
2022-08-10T02:05:00.675Z,67.84
2022-08-10T02:07:31.800Z,69.35
2022-08-10T02:10:03.913Z,68.94
2022-08-10T02:12:34.131Z,67.55
2022-08-10T02:15:04.216Z,67.32
2022-08-10T02:17:57.637Z,67.30
2022-08-10T02:20:27.333Z,67.51
2022-08-10T02:23:03.525Z,67.63
2022-08-10T02:25:41.738Z,67.41
2022-08-10T02:28:12.601Z,67.67
2022-08-10T02:30:56.380Z,67.60
2022-08-10T02:33:27.461Z,67.07
2022-08-10T02:35:56.276Z,66.95
2022-08-10T02:38:59.421Z,67.47
2022-08-10T02:42:18.242Z,69.22
2022-08-10T02:45:27.650Z,67.60
2022-08-10T02:47:05.874Z,67.45
2022-08-10T02:49:40.090Z,67.88
2022-08-10T02:52:10.420Z,67.85
2022-08-10T02:54:40.524Z,67.93
2022-08-10T02:57:11.215Z,67.40
2022-08-10T02:59:42.385Z,67.58
2022-08-10T03:02:14.689Z,67.54
2022-08-10T03:04:55.184Z,67.31
2022-08-10T03:07:43.302Z,67.76
2022-08-10T03:10:15.475Z,67.35
2022-08-10T03:12:43.964Z,67.29
2022-08-10T03:15:15.408Z,67.20
2022-08-10T03:17:57.048Z,67.06
2022-08-10T03:20:37.483Z,66.81
2022-08-10T03:23:11.669Z,66.75
2022-08-10T03:25:39.493Z,66.94
2022-08-10T03:28:07.511Z,66.83
2022-08-10T03:30:36.018Z,67.02
2022-08-10T03:33:05.338Z,67.72
2022-08-10T03:35:34.600Z,67.56
2022-08-10T03:38:04.101Z,67.05
2022-08-10T03:40:45.072Z,67.68
2022-08-10T03:43:16.958Z,67.77
2022-08-10T03:45:54.450Z,68.43
2022-08-10T03:48:45.167Z,68.04
2022-08-10T03:51:14.053Z,68.22
2022-08-10T03:54:05.626Z,67.99
2022-08-10T03:56:32.344Z,68.11
2022-08-10T03:59:01.047Z,68.36
2022-08-10T04:02:52.642Z,67.85
2022-08-10T04:04:23.775Z,68.96
2022-08-10T04:06:55.620Z,67.97
2022-08-10T04:09:24.989Z,68.78
2022-08-10T04:12:10.761Z,69.86
2022-08-10T04:14:50.751Z,68.93
2022-08-10T04:18:05.222Z,68.98
2022-08-10T04:20:14.921Z,69.09
2022-08-10T04:22:44.893Z,68.68
2022-08-10T04:25:14.156Z,68.83
2022-08-10T04:27:42.508Z,69.58
2022-08-10T04:30:11.161Z,69.35
2022-08-10T04:32:41.101Z,69.47
2022-08-10T04:35:10.589Z,70.61
2022-08-10T04:37:47.282Z,70.49
2022-08-10T04:40:25.479Z,69.87
2022-08-10T04:43:00.204Z,70.88
2022-08-10T04:45:48.972Z,72.76
2022-08-10T04:48:43.227Z,72.26
2022-08-10T04:51:06.343Z,72.44
2022-08-10T04:54:02.816Z,72.10
2022-08-10T04:56:31.199Z,73.01
2022-08-10T04:59:00.082Z,73.08
2022-08-10T05:02:21.359Z,72.61
2022-08-10T05:04:37.371Z,72.48
2022-08-10T05:07:05.861Z,73.00
2022-08-10T05:09:33.600Z,72.63
2022-08-10T05:12:22.729Z,71.90
2022-08-10T05:14:51.890Z,73.59
2022-08-10T05:17:19.709Z,72.50
2022-08-10T05:20:04.046Z,72.20
2022-08-10T05:22:35.929Z,72.34
2022-08-10T05:25:05.354Z,72.97
2022-08-10T05:27:34.578Z,72.46
2022-08-10T05:30:03.770Z,74.32
2022-08-10T05:32:32.430Z,74.67
2022-08-10T05:35:20.073Z,73.76
2022-08-10T05:38:09.489Z,73.94
2022-08-10T05:40:37.581Z,74.37
2022-08-10T05:43:06.825Z,74.28
2022-08-10T05:45:34.628Z,73.45
2022-08-10T05:48:54.646Z,75.69
2022-08-10T05:51:10.658Z,74.75
2022-08-10T05:54:02.116Z,75.68
2022-08-10T05:56:27.071Z,74.87
2022-08-10T06:00:09.893Z,73.79
2022-08-10T06:02:41.136Z,74.22
2022-08-10T06:04:54.173Z,73.28
2022-08-10T06:07:22.485Z,73.49
2022-08-10T06:09:59.367Z,74.76
2022-08-10T06:12:37.555Z,73.70
2022-08-10T06:15:21.631Z,74.39
2022-08-10T06:18:06.085Z,73.62
2022-08-10T06:20:36.209Z,73.84
2022-08-10T06:23:05.376Z,75.09
2022-08-10T06:26:10.020Z,74.30
2022-08-10T06:28:22.167Z,74.28
2022-08-10T06:30:53.648Z,74.47
2022-08-10T06:33:22.481Z,74.10
2022-08-10T06:35:53.463Z,73.96
2022-08-10T06:38:22.718Z,76.02
2022-08-10T06:40:50.897Z,76.46
2022-08-10T06:43:20.014Z,74.81
2022-08-10T06:46:07.777Z,74.98
2022-08-10T06:48:41.208Z,76.42
2022-08-10T06:51:14.716Z,75.43
2022-08-10T06:53:53.434Z,76.06
2022-08-10T06:56:35.980Z,75.91
2022-08-10T06:59:15.545Z,76.36
2022-08-10T07:01:51.724Z,76.71
2022-08-10T07:04:32.839Z,76.95
2022-08-10T07:07:05.568Z,75.45
2022-08-10T07:09:37.220Z,76.59
2022-08-10T07:12:07.537Z,76.21
2022-08-10T07:14:39.177Z,74.96
2022-08-10T07:17:07.169Z,75.28
2022-08-10T07:19:36.469Z,74.69
2022-08-10T07:23:08.131Z,75.38
2022-08-10T07:25:08.420Z,74.27
2022-08-10T07:27:58.331Z,73.54
2022-08-10T07:30:28.090Z,72.64
2022-08-10T07:32:57.131Z,74.36
2022-08-10T07:35:30.707Z,73.11
2022-08-10T07:38:02.959Z,73.25
2022-08-10T07:40:33.534Z,71.90
2022-08-10T07:43:03.049Z,71.29
2022-08-10T07:45:33.220Z,70.37
2022-08-10T07:48:07.499Z,70.61
2022-08-10T07:50:38.689Z,70.67
2022-08-10T07:53:08.667Z,70.20
2022-08-10T07:56:04.372Z,67.79
2022-08-10T07:58:30.008Z,67.76
2022-08-10T08:00:58.753Z,67.90
2022-08-10T08:03:28.128Z,67.79
2022-08-10T08:06:05.308Z,66.96
2022-08-10T08:08:39.880Z,66.66
2022-08-10T08:11:08.258Z,67.54
2022-08-10T08:13:37.171Z,66.51
2022-08-10T08:16:17.053Z,65.69
2022-08-10T08:19:09.903Z,64.87
2022-08-10T08:24:13.657Z,65.36
2022-08-10T08:24:32.359Z,65.28
2022-08-10T08:27:02.516Z,65.75
2022-08-10T08:29:30.414Z,65.95
2022-08-10T08:32:02.315Z,64.75
2022-08-10T08:34:31.756Z,63.41
2022-08-10T08:37:03.117Z,62.60
2022-08-10T08:39:33.050Z,64.77
2022-08-10T08:42:15.101Z,65.12
2022-08-10T08:45:03.025Z,63.39
2022-08-10T08:48:03.736Z,61.89
2022-08-10T08:50:38.496Z,62.79
2022-08-10T08:53:22.402Z,60.99
2022-08-10T08:56:03.672Z,61.51
2022-08-10T08:58:43.353Z,61.10
2022-08-10T09:01:21.946Z,62.49
2022-08-10T09:03:59.820Z,61.80
2022-08-10T09:06:43.561Z,62.60
2022-08-10T09:09:22.660Z,61.60
2022-08-10T09:11:57.861Z,60.92
2022-08-10T09:14:27.162Z,59.38
2022-08-10T09:16:58.747Z,60.37
2022-08-10T09:19:36.394Z,57.71
2022-08-10T09:22:18.487Z,60.74
2022-08-10T09:24:53.044Z,62.05
2022-08-10T09:27:23.738Z,58.94
2022-08-10T09:29:55.799Z,58.36
2022-08-10T09:36:16.929Z,58.90
2022-08-10T09:36:24.973Z,58.95
2022-08-10T09:38:23.763Z,58.89
2022-08-10T09:41:02.991Z,58.96
2022-08-10T09:43:43.241Z,57.51
2022-08-10T09:46:17.582Z,56.52
2022-08-10T09:48:51.253Z,56.73
2022-08-10T09:51:44.900Z,58.10
2022-08-10T09:54:22.116Z,57.12
2022-08-10T09:57:17.888Z,57.07
2022-08-10T10:00:01.648Z,56.47
2022-08-10T10:02:37.202Z,56.07
2022-08-10T10:05:15.033Z,55.89
2022-08-10T10:07:47.389Z,55.64
2022-08-10T10:10:19.745Z,55.56
2022-08-10T10:12:54.432Z,55.95
2022-08-10T10:15:30.534Z,54.55
2022-08-10T10:18:10.329Z,55.31
2022-08-10T10:20:42.189Z,54.63
2022-08-10T10:23:15.888Z,54.66
2022-08-10T10:25:50.961Z,55.16
2022-08-10T10:29:11.320Z,54.75
2022-08-10T10:31:29.580Z,55.19
2022-08-10T10:34:07.932Z,54.92
2022-08-10T10:36:35.860Z,54.68
2022-08-10T10:39:04.477Z,54.47
2022-08-10T10:42:03.528Z,54.42
2022-08-10T10:44:42.125Z,53.77
2022-08-10T10:47:30.923Z,52.84
2022-08-10T10:50:06.504Z,52.83
2022-08-10T10:52:43.080Z,52.62
2022-08-10T10:55:17.431Z,52.85
2022-08-10T10:57:58.466Z,54.36
2022-08-10T11:00:38.476Z,53.25
2022-08-10T11:03:37.703Z,53.50
2022-08-10T11:06:11.440Z,53.02
2022-08-10T11:08:41.851Z,52.81
2022-08-10T11:11:59.633Z,53.09
2022-08-10T11:14:27.631Z,52.73
2022-08-10T11:17:04.062Z,53.09
2022-08-10T11:20:00.463Z,52.50
2022-08-10T11:22:36.663Z,53.38
2022-08-10T11:25:11.364Z,51.96
2022-08-10T11:27:48.628Z,52.09
2022-08-10T11:30:20.037Z,51.39
2022-08-10T11:33:00.076Z,52.28
2022-08-10T11:35:35.107Z,52.10
2022-08-10T11:38:31.844Z,52.16
2022-08-10T11:42:05.346Z,50.89
2022-08-10T11:43:59.278Z,51.06
2022-08-10T11:46:31.944Z,51.70
2022-08-10T11:49:04.925Z,51.91
2022-08-10T11:51:38.808Z,51.56
2022-08-10T11:54:10.040Z,51.20
2022-08-10T11:56:46.211Z,52.32
2022-08-10T11:59:44.337Z,51.25
2022-08-10T12:02:15.166Z,50.62
2022-08-10T12:04:48.953Z,50.21
2022-08-10T12:10:05.134Z,50.52
2022-08-10T12:10:13.391Z,51.00
2022-08-10T12:12:46.745Z,50.43
2022-08-10T12:15:18.185Z,50.06
2022-08-10T12:17:49.017Z,50.92
2022-08-10T12:20:26.421Z,50.34
2022-08-10T12:22:57.220Z,50.91
2022-08-10T12:25:55.783Z,51.18
2022-08-10T12:28:21.656Z,50.61
2022-08-10T12:30:59.214Z,50.09
2022-08-10T12:33:32.040Z,49.01
2022-08-10T12:36:28.069Z,49.33
2022-08-10T12:39:03.218Z,49.46
2022-08-10T12:41:44.237Z,49.57
2022-08-10T12:44:14.339Z,50.09
2022-08-10T12:46:51.423Z,48.53
2022-08-10T12:49:22.582Z,49.30
2022-08-10T12:52:00.612Z,49.85
2022-08-10T12:54:31.713Z,50.07
2022-08-10T12:57:03.075Z,49.13
2022-08-10T12:59:32.681Z,49.62
2022-08-10T13:02:13.423Z,49.48
2022-08-10T13:04:43.248Z,49.56
2022-08-10T13:08:05.321Z,49.25
2022-08-10T13:10:04.536Z,48.52
2022-08-10T13:12:39.015Z,49.34
2022-08-10T13:15:45.593Z,49.56
2022-08-10T13:18:02.842Z,48.82
2022-08-10T13:20:37.247Z,49.16
2022-08-10T13:23:11.750Z,49.33
2022-08-10T13:25:42.409Z,48.48
2022-08-10T13:28:37.927Z,48.69
2022-08-10T13:31:03.805Z,48.71
2022-08-10T13:34:39.342Z,48.74
2022-08-10T13:36:23.049Z,48.50
2022-08-10T13:38:53.117Z,48.61
2022-08-10T13:41:21.352Z,48.67
2022-08-10T13:43:53.422Z,49.16
2022-08-10T13:46:23.041Z,49.38
2022-08-10T13:48:53.199Z,48.94
2022-08-10T13:51:23.329Z,48.46
2022-08-10T13:54:12.885Z,48.55
2022-08-10T13:56:43.232Z,48.91
2022-08-10T13:59:11.950Z,48.56
2022-08-10T14:01:48.622Z,48.35
2022-08-10T14:04:16.516Z,48.49
2022-08-10T14:06:51.383Z,48.32
2022-08-10T14:09:25.619Z,48.18
2022-08-10T14:11:53.790Z,48.08
2022-08-10T14:14:22.532Z,48.25
2022-08-10T14:16:50.899Z,48.13
2022-08-10T14:19:21.216Z,48.09
2022-08-10T14:21:49.948Z,47.99
2022-08-10T14:24:23.917Z,47.76
2022-08-10T14:26:52.888Z,48.03
2022-08-10T14:29:22.152Z,47.97
2022-08-10T14:32:00.868Z,47.60
2022-08-10T14:36:16.576Z,47.74
2022-08-10T14:37:23.214Z,47.62
2022-08-10T14:39:56.751Z,47.86
2022-08-10T14:42:29.347Z,47.10
2022-08-10T14:44:59.933Z,47.31
2022-08-10T14:47:59.467Z,47.83
2022-08-10T14:50:32.509Z,47.71
2022-08-10T14:53:03.197Z,47.87
2022-08-10T14:55:32.452Z,47.34
2022-08-10T14:58:22.898Z,47.78
2022-08-10T15:00:52.043Z,47.74
2022-08-10T15:03:58.721Z,47.44
2022-08-10T15:06:17.203Z,47.51
2022-08-10T15:08:47.487Z,47.68
2022-08-10T15:12:13.488Z,47.52
2022-08-10T15:14:41.588Z,47.69
2022-08-10T15:16:55.344Z,47.91
2022-08-10T15:20:01.385Z,47.66
2022-08-10T15:22:36.565Z,47.59
2022-08-10T15:25:18.374Z,47.66
2022-08-10T15:27:53.370Z,47.56
2022-08-10T15:30:30.081Z,47.51
2022-08-10T15:33:21.392Z,47.86
2022-08-10T15:36:25.658Z,47.47
2022-08-10T15:38:59.408Z,47.42
2022-08-10T15:41:59.085Z,46.66
2022-08-10T15:44:36.553Z,46.96
2022-08-10T15:47:08.316Z,46.76
2022-08-10T15:49:45.231Z,46.80
2022-08-10T15:53:01.111Z,46.74
2022-08-10T15:55:41.878Z,46.88
2022-08-10T15:58:05.807Z,46.82
2022-08-10T16:00:38.199Z,46.55
2022-08-10T16:03:12.971Z,47.12
2022-08-10T16:06:02.288Z,47.11
2022-08-10T16:08:50.173Z,47.34
2022-08-10T16:11:37.956Z,46.89
2022-08-10T16:14:17.529Z,46.37
2022-08-10T16:16:50.199Z,46.59
2022-08-10T16:19:24.888Z,46.60
2022-08-10T16:21:57.091Z,47.11
2022-08-10T16:24:25.321Z,46.95
2022-08-10T16:26:54.424Z,46.94
2022-08-10T16:29:23.840Z,46.57
2022-08-10T16:31:55.344Z,46.83
2022-08-10T16:34:23.623Z,46.53
2022-08-10T16:36:54.185Z,46.56
2022-08-10T16:39:57.920Z,46.54
2022-08-10T16:42:17.994Z,46.63
2022-08-10T16:44:52.538Z,46.50
2022-08-10T16:47:27.559Z,46.01
2022-08-10T16:49:57.032Z,46.28
2022-08-10T16:52:27.449Z,46.44
2022-08-10T16:54:59.122Z,46.72
2022-08-10T16:57:27.650Z,46.46
2022-08-10T16:59:55.888Z,46.82
2022-08-10T17:02:26.309Z,46.27
2022-08-10T17:04:55.088Z,46.48
2022-08-10T17:07:30.567Z,46.73
2022-08-10T17:09:59.084Z,46.66
2022-08-10T17:12:28.395Z,46.68
2022-08-10T17:15:09.203Z,46.56
2022-08-10T17:17:42.120Z,45.92
2022-08-10T17:20:31.400Z,46.31
2022-08-10T17:23:03.192Z,46.91
2022-08-10T17:25:48.551Z,46.69
2022-08-10T17:28:36.041Z,46.86
2022-08-10T17:31:39.685Z,47.64
2022-08-10T17:34:00.786Z,47.32
2022-08-10T17:36:33.748Z,47.32
2022-08-10T17:39:03.260Z,47.71
2022-08-10T17:41:33.229Z,47.98
2022-08-10T17:44:03.448Z,47.32
2022-08-10T17:46:33.661Z,47.80
2022-08-10T17:49:07.162Z,47.52
2022-08-10T17:51:35.349Z,48.04
2022-08-10T17:54:08.899Z,48.12
2022-08-10T17:56:37.902Z,47.71
2022-08-10T17:59:16.902Z,47.90
2022-08-10T18:01:58.565Z,48.36
2022-08-10T18:04:41.913Z,47.85
2022-08-10T18:07:11.149Z,48.14
2022-08-10T18:09:41.270Z,48.34
2022-08-10T18:12:17.840Z,48.43
2022-08-10T18:14:47.559Z,48.90
2022-08-10T18:17:19.584Z,48.59
2022-08-10T18:19:52.978Z,48.44
2022-08-10T18:22:21.509Z,48.77
2022-08-10T18:24:50.423Z,48.92
2022-08-10T18:27:19.389Z,49.22
2022-08-10T18:29:51.046Z,49.76
2022-08-10T18:32:20.056Z,49.75
2022-08-10T18:34:50.870Z,49.79
2022-08-10T18:37:23.636Z,50.31
2022-08-10T18:39:51.888Z,50.17
2022-08-10T18:42:22.857Z,50.51
2022-08-10T18:44:54.941Z,50.85
2022-08-10T18:47:30.329Z,51.22
2022-08-10T18:50:02.088Z,51.20
2022-08-10T18:52:31.751Z,51.17
2022-08-10T18:55:14.474Z,50.89
2022-08-10T18:58:08.609Z,50.57
2022-08-10T19:00:45.336Z,51.04
2022-08-10T19:03:26.527Z,50.90
2022-08-10T19:06:10.812Z,50.33
2022-08-10T19:08:57.265Z,52.28
2022-08-10T19:11:35.392Z,52.61
2022-08-10T19:14:09.200Z,52.63
2022-08-10T19:16:42.443Z,52.52
2022-08-10T19:19:31.284Z,53.19
2022-08-10T19:22:04.847Z,54.97
2022-08-10T19:24:45.037Z,56.07
2022-08-10T19:27:16.359Z,55.47
2022-08-10T19:30:09.404Z,56.13
2022-08-10T19:32:53.407Z,56.90
2022-08-10T19:35:29.774Z,56.75
2022-08-10T19:38:06.911Z,56.63
2022-08-10T19:40:52.933Z,57.63
2022-08-10T19:44:00.807Z,57.85
2022-08-10T19:46:25.931Z,57.61
2022-08-10T19:49:01.800Z,57.88
2022-08-10T19:51:36.937Z,57.62
2022-08-10T19:54:11.299Z,57.71
2022-08-10T19:56:47.697Z,57.96
2022-08-10T20:00:15.166Z,58.69
2022-08-10T20:02:21.070Z,57.43
2022-08-10T20:05:00.873Z,58.43
2022-08-10T20:07:35.451Z,58.13
2022-08-10T20:10:11.132Z,59.00
2022-08-10T20:12:46.227Z,59.36
2022-08-10T20:15:24.048Z,59.20
2022-08-10T20:17:57.316Z,58.98
2022-08-10T20:20:31.611Z,58.88
2022-08-10T20:23:06.084Z,58.87
2022-08-10T20:25:35.322Z,59.50
2022-08-10T20:28:10.907Z,58.86
2022-08-10T20:30:44.717Z,58.87
2022-08-10T20:33:16.264Z,58.57
2022-08-10T20:35:49.409Z,59.16
2022-08-10T20:38:27.144Z,59.12
2022-08-10T20:41:07.493Z,58.58
2022-08-10T20:43:40.502Z,59.33
2022-08-10T20:46:14.281Z,58.98
2022-08-10T20:48:45.475Z,59.56
2022-08-10T20:51:15.561Z,58.76
2022-08-10T20:53:48.295Z,59.66
2022-08-10T20:56:23.194Z,59.47
2022-08-10T20:59:08.872Z,59.49
2022-08-10T21:02:07.213Z,59.01
2022-08-10T21:04:45.047Z,58.64
2022-08-10T21:07:57.878Z,59.04
2022-08-10T21:10:24.352Z,59.70
2022-08-10T21:13:03.004Z,58.69
2022-08-10T21:15:48.770Z,58.66
2022-08-10T21:18:25.293Z,57.71
2022-08-10T21:23:50.449Z,57.34
2022-08-10T21:25:42.184Z,57.91
2022-08-10T21:26:37.099Z,57.85
2022-08-10T21:29:24.072Z,57.43
2022-08-10T21:32:17.631Z,57.44
2022-08-10T21:35:03.060Z,57.90
2022-08-10T21:37:41.209Z,57.95
2022-08-10T21:40:32.407Z,58.19
2022-08-10T21:43:44.681Z,58.12
2022-08-10T21:49:53.769Z,57.69
2022-08-10T21:52:53.740Z,57.90
2022-08-10T21:55:55.938Z,58.29
2022-08-10T21:58:56.324Z,57.85
2022-08-10T22:01:51.281Z,58.32
2022-08-10T22:07:47.316Z,57.98
2022-08-10T22:10:37.766Z,58.49
2022-08-10T22:13:24.219Z,58.34
2022-08-10T22:16:12.526Z,58.47
2022-08-10T22:19:04.570Z,58.14
2022-08-10T22:22:04.535Z,58.45
2022-08-10T22:25:06.196Z,58.06
2022-08-10T22:28:03.464Z,58.24
2022-08-10T22:31:14.787Z,58.08
2022-08-10T22:31:26.982Z,58.42
2022-08-10T22:31:27.040Z,58.20
2022-08-10T22:34:00.921Z,58.76
2022-08-10T22:37:08.652Z,59.44
2022-08-10T22:40:11.137Z,59.15
2022-08-10T22:43:11.145Z,58.84
2022-08-10T22:46:04.194Z,58.26
2022-08-10T22:48:50.141Z,58.86
2022-08-10T22:51:23.868Z,58.89
2022-08-10T22:54:11.681Z,58.36
2022-08-10T22:57:18.617Z,59.18
2022-08-10T22:59:46.933Z,59.49
2022-08-10T23:02:23.423Z,58.79
2022-08-10T23:04:53.597Z,58.66
2022-08-10T23:07:24.848Z,58.49
2022-08-10T23:09:57.736Z,58.62
2022-08-10T23:12:30.261Z,59.31
2022-08-10T23:15:16.788Z,59.00
2022-08-10T23:18:07.378Z,58.88
2022-08-10T23:20:36.772Z,58.81
2022-08-10T23:23:10.185Z,58.64
2022-08-10T23:25:57.164Z,58.74
2022-08-10T23:28:38.587Z,58.80
2022-08-10T23:31:15.828Z,58.39
2022-08-10T23:33:45.626Z,59.02
2022-08-10T23:36:34.656Z,58.90
2022-08-10T23:39:26.907Z,58.81
2022-08-10T23:41:56.206Z,58.42
2022-08-10T23:44:24.822Z,58.98
2022-08-10T23:46:53.429Z,58.70
2022-08-10T23:49:21.983Z,58.89
2022-08-10T23:51:56.125Z,58.60
2022-08-10T23:54:27.036Z,58.21
2022-08-10T23:57:01.021Z,58.53
2022-08-10T23:59:31.981Z,58.50
